sensor_id;sensor_type;location;lat;lon;timestamp;P1;durP1;ratioP1;P2;durP2;ratioP2
31990;SDS011;18508;49.386;8.370;2024-01-30T00:00:52;32.55;;;17.35;;
31990;SDS011;18508;49.386;8.370;2024-01-30T00:03:20;32.65;;;16.95;;
31990;SDS011;18508;49.386;8.370;2024-01-30T00:05:50;27.88;;;16.63;;
31990;SDS011;18508;49.386;8.370;2024-01-30T00:08:20;34.00;;;18.63;;
31990;SDS011;18508;49.386;8.370;2024-01-30T00:10:49;34.03;;;16.95;;
31990;SDS011;18508;49.386;8.370;2024-01-30T00:13:17;34.13;;;18.02;;
31990;SDS011;18508;49.386;8.370;2024-01-30T00:15:46;32.60;;;17.63;;
31990;SDS011;18508;49.386;8.370;2024-01-30T00:18:14;30.67;;;16.73;;
31990;SDS011;18508;49.386;8.370;2024-01-30T00:20:43;32.50;;;17.60;;
31990;SDS011;18508;49.386;8.370;2024-01-30T00:23:13;37.35;;;17.85;;
31990;SDS011;18508;49.386;8.370;2024-01-30T00:25:41;34.83;;;18.55;;
31990;SDS011;18508;49.386;8.370;2024-01-30T00:28:09;32.83;;;17.45;;
31990;SDS011;18508;49.386;8.370;2024-01-30T00:30:38;31.17;;;17.70;;
31990;SDS011;18508;49.386;8.370;2024-01-30T00:33:06;31.13;;;18.10;;
31990;SDS011;18508;49.386;8.370;2024-01-30T00:35:35;33.45;;;16.65;;
31990;SDS011;18508;49.386;8.370;2024-01-30T00:38:04;30.90;;;18.15;;
31990;SDS011;18508;49.386;8.370;2024-01-30T00:40:35;31.58;;;17.15;;
31990;SDS011;18508;49.386;8.370;2024-01-30T00:43:04;29.48;;;17.02;;
31990;SDS011;18508;49.386;8.370;2024-01-30T00:45:33;28.48;;;16.92;;
31990;SDS011;18508;49.386;8.370;2024-01-30T00:48:01;35.00;;;17.70;;
31990;SDS011;18508;49.386;8.370;2024-01-30T00:50:30;34.60;;;17.92;;
31990;SDS011;18508;49.386;8.370;2024-01-30T00:52:59;33.28;;;18.08;;
31990;SDS011;18508;49.386;8.370;2024-01-30T00:55:28;31.15;;;18.35;;
31990;SDS011;18508;49.386;8.370;2024-01-30T00:57:58;33.72;;;18.42;;
31990;SDS011;18508;49.386;8.370;2024-01-30T01:00:26;38.38;;;20.90;;
31990;SDS011;18508;49.386;8.370;2024-01-30T01:02:55;34.92;;;18.88;;
31990;SDS011;18508;49.386;8.370;2024-01-30T01:05:24;31.85;;;19.13;;
31990;SDS011;18508;49.386;8.370;2024-01-30T01:07:53;37.85;;;19.38;;
31990;SDS011;18508;49.386;8.370;2024-01-30T01:10:22;41.05;;;21.25;;
31990;SDS011;18508;49.386;8.370;2024-01-30T01:12:51;34.13;;;19.08;;
31990;SDS011;18508;49.386;8.370;2024-01-30T01:15:21;37.65;;;21.30;;
31990;SDS011;18508;49.386;8.370;2024-01-30T01:17:52;36.67;;;20.52;;
31990;SDS011;18508;49.386;8.370;2024-01-30T01:20:23;37.70;;;20.90;;
31990;SDS011;18508;49.386;8.370;2024-01-30T01:22:52;34.90;;;20.60;;
31990;SDS011;18508;49.386;8.370;2024-01-30T01:25:20;36.70;;;21.88;;
31990;SDS011;18508;49.386;8.370;2024-01-30T01:27:49;38.10;;;21.50;;
31990;SDS011;18508;49.386;8.370;2024-01-30T01:30:19;36.22;;;19.92;;
31990;SDS011;18508;49.386;8.370;2024-01-30T01:32:50;38.70;;;20.58;;
31990;SDS011;18508;49.386;8.370;2024-01-30T01:35:21;34.72;;;20.85;;
31990;SDS011;18508;49.386;8.370;2024-01-30T01:37:50;35.08;;;20.23;;
31990;SDS011;18508;49.386;8.370;2024-01-30T01:40:22;37.58;;;20.25;;
31990;SDS011;18508;49.386;8.370;2024-01-30T01:42:51;35.58;;;20.00;;
31990;SDS011;18508;49.386;8.370;2024-01-30T01:45:19;34.25;;;19.40;;
31990;SDS011;18508;49.386;8.370;2024-01-30T01:47:50;34.15;;;19.02;;
31990;SDS011;18508;49.386;8.370;2024-01-30T01:50:20;35.55;;;20.67;;
31990;SDS011;18508;49.386;8.370;2024-01-30T01:52:49;39.67;;;20.75;;
31990;SDS011;18508;49.386;8.370;2024-01-30T01:55:18;37.10;;;20.17;;
31990;SDS011;18508;49.386;8.370;2024-01-30T01:57:53;36.72;;;20.20;;
31990;SDS011;18508;49.386;8.370;2024-01-30T02:00:22;33.22;;;18.90;;
31990;SDS011;18508;49.386;8.370;2024-01-30T02:02:52;30.75;;;19.30;;
31990;SDS011;18508;49.386;8.370;2024-01-30T02:05:21;37.88;;;19.13;;
31990;SDS011;18508;49.386;8.370;2024-01-30T02:07:51;37.47;;;20.83;;
31990;SDS011;18508;49.386;8.370;2024-01-30T02:10:20;29.63;;;18.35;;
31990;SDS011;18508;49.386;8.370;2024-01-30T02:12:49;32.80;;;19.20;;
31990;SDS011;18508;49.386;8.370;2024-01-30T02:15:18;34.60;;;18.85;;
31990;SDS011;18508;49.386;8.370;2024-01-30T02:17:46;34.08;;;17.88;;
31990;SDS011;18508;49.386;8.370;2024-01-30T02:20:16;34.03;;;18.90;;
31990;SDS011;18508;49.386;8.370;2024-01-30T02:22:46;31.45;;;19.05;;
31990;SDS011;18508;49.386;8.370;2024-01-30T02:25:15;31.23;;;17.58;;
31990;SDS011;18508;49.386;8.370;2024-01-30T02:27:44;32.70;;;18.77;;
31990;SDS011;18508;49.386;8.370;2024-01-30T02:30:12;31.88;;;18.17;;
31990;SDS011;18508;49.386;8.370;2024-01-30T02:32:41;31.38;;;17.15;;
31990;SDS011;18508;49.386;8.370;2024-01-30T02:35:09;34.55;;;18.08;;
31990;SDS011;18508;49.386;8.370;2024-01-30T02:37:38;30.75;;;17.30;;
31990;SDS011;18508;49.386;8.370;2024-01-30T02:40:09;33.95;;;18.25;;
31990;SDS011;18508;49.386;8.370;2024-01-30T02:42:39;38.78;;;17.65;;
31990;SDS011;18508;49.386;8.370;2024-01-30T02:45:09;30.13;;;17.17;;
31990;SDS011;18508;49.386;8.370;2024-01-30T02:47:38;27.75;;;18.38;;
31990;SDS011;18508;49.386;8.370;2024-01-30T02:50:06;29.80;;;17.90;;
31990;SDS011;18508;49.386;8.370;2024-01-30T02:52:35;33.60;;;18.58;;
31990;SDS011;18508;49.386;8.370;2024-01-30T02:55:04;30.10;;;19.17;;
31990;SDS011;18508;49.386;8.370;2024-01-30T02:57:35;31.52;;;18.02;;
31990;SDS011;18508;49.386;8.370;2024-01-30T03:00:03;37.20;;;18.60;;
31990;SDS011;18508;49.386;8.370;2024-01-30T03:02:36;36.45;;;19.63;;
31990;SDS011;18508;49.386;8.370;2024-01-30T03:05:05;39.97;;;19.90;;
31990;SDS011;18508;49.386;8.370;2024-01-30T03:07:34;37.80;;;19.58;;
31990;SDS011;18508;49.386;8.370;2024-01-30T03:10:03;36.22;;;19.52;;
31990;SDS011;18508;49.386;8.370;2024-01-30T03:12:34;36.53;;;19.98;;
31990;SDS011;18508;49.386;8.370;2024-01-30T03:15:04;40.55;;;20.83;;
31990;SDS011;18508;49.386;8.370;2024-01-30T03:17:33;40.30;;;20.67;;
31990;SDS011;18508;49.386;8.370;2024-01-30T03:20:03;36.40;;;19.52;;
31990;SDS011;18508;49.386;8.370;2024-01-30T03:22:32;43.15;;;21.23;;
31990;SDS011;18508;49.386;8.370;2024-01-30T03:25:03;38.85;;;21.88;;
31990;SDS011;18508;49.386;8.370;2024-01-30T03:27:33;37.50;;;20.23;;
31990;SDS011;18508;49.386;8.370;2024-01-30T03:30:02;39.63;;;21.15;;
31990;SDS011;18508;49.386;8.370;2024-01-30T03:32:31;32.92;;;19.40;;
31990;SDS011;18508;49.386;8.370;2024-01-30T03:34:59;40.28;;;21.20;;
31990;SDS011;18508;49.386;8.370;2024-01-30T03:37:28;37.90;;;20.30;;
31990;SDS011;18508;49.386;8.370;2024-01-30T03:39:57;38.78;;;19.95;;
31990;SDS011;18508;49.386;8.370;2024-01-30T03:42:25;35.95;;;20.92;;
31990;SDS011;18508;49.386;8.370;2024-01-30T03:44:53;38.38;;;19.88;;
31990;SDS011;18508;49.386;8.370;2024-01-30T03:47:23;36.55;;;21.17;;
31990;SDS011;18508;49.386;8.370;2024-01-30T03:49:51;42.63;;;20.75;;
31990;SDS011;18508;49.386;8.370;2024-01-30T03:52:20;37.97;;;20.40;;
31990;SDS011;18508;49.386;8.370;2024-01-30T03:54:49;42.85;;;20.98;;
31990;SDS011;18508;49.386;8.370;2024-01-30T03:57:17;36.10;;;20.88;;
31990;SDS011;18508;49.386;8.370;2024-01-30T03:59:45;34.22;;;18.58;;
31990;SDS011;18508;49.386;8.370;2024-01-30T04:02:13;33.10;;;18.50;;
31990;SDS011;18508;49.386;8.370;2024-01-30T04:04:44;36.85;;;20.55;;
31990;SDS011;18508;49.386;8.370;2024-01-30T04:07:12;36.78;;;19.35;;
31990;SDS011;18508;49.386;8.370;2024-01-30T04:09:40;39.65;;;20.25;;
31990;SDS011;18508;49.386;8.370;2024-01-30T04:12:09;34.70;;;19.15;;
31990;SDS011;18508;49.386;8.370;2024-01-30T04:14:38;33.60;;;19.10;;
31990;SDS011;18508;49.386;8.370;2024-01-30T04:17:08;43.13;;;21.20;;
31990;SDS011;18508;49.386;8.370;2024-01-30T04:19:37;39.60;;;20.33;;
31990;SDS011;18508;49.386;8.370;2024-01-30T04:22:07;34.88;;;19.95;;
31990;SDS011;18508;49.386;8.370;2024-01-30T04:24:35;37.55;;;19.17;;
31990;SDS011;18508;49.386;8.370;2024-01-30T04:27:04;34.75;;;19.90;;
31990;SDS011;18508;49.386;8.370;2024-01-30T04:29:32;38.63;;;20.75;;
31990;SDS011;18508;49.386;8.370;2024-01-30T04:32:00;39.65;;;20.90;;
31990;SDS011;18508;49.386;8.370;2024-01-30T04:34:29;34.95;;;20.67;;
31990;SDS011;18508;49.386;8.370;2024-01-30T04:36:59;36.85;;;20.02;;
31990;SDS011;18508;49.386;8.370;2024-01-30T04:39:29;38.88;;;20.42;;
31990;SDS011;18508;49.386;8.370;2024-01-30T04:42:00;37.92;;;20.10;;
31990;SDS011;18508;49.386;8.370;2024-01-30T04:44:30;38.03;;;21.00;;
31990;SDS011;18508;49.386;8.370;2024-01-30T04:46:59;40.15;;;20.60;;
31990;SDS011;18508;49.386;8.370;2024-01-30T04:49:27;35.45;;;21.45;;
31990;SDS011;18508;49.386;8.370;2024-01-30T04:51:56;32.50;;;20.35;;
31990;SDS011;18508;49.386;8.370;2024-01-30T04:54:25;36.83;;;20.10;;
31990;SDS011;18508;49.386;8.370;2024-01-30T04:56:55;41.17;;;21.55;;
31990;SDS011;18508;49.386;8.370;2024-01-30T04:59:23;38.75;;;21.67;;
31990;SDS011;18508;49.386;8.370;2024-01-30T05:01:54;43.90;;;21.88;;
31990;SDS011;18508;49.386;8.370;2024-01-30T05:04:22;36.67;;;21.90;;
31990;SDS011;18508;49.386;8.370;2024-01-30T05:06:53;41.92;;;21.52;;
31990;SDS011;18508;49.386;8.370;2024-01-30T05:09:22;44.85;;;23.58;;
31990;SDS011;18508;49.386;8.370;2024-01-30T05:11:50;40.40;;;21.88;;
31990;SDS011;18508;49.386;8.370;2024-01-30T05:14:20;40.08;;;22.73;;
31990;SDS011;18508;49.386;8.370;2024-01-30T05:16:49;44.92;;;23.38;;
31990;SDS011;18508;49.386;8.370;2024-01-30T05:19:18;40.28;;;22.55;;
31990;SDS011;18508;49.386;8.370;2024-01-30T05:21:46;41.72;;;22.40;;
31990;SDS011;18508;49.386;8.370;2024-01-30T05:24:15;46.35;;;23.80;;
31990;SDS011;18508;49.386;8.370;2024-01-30T05:26:49;37.05;;;22.63;;
31990;SDS011;18508;49.386;8.370;2024-01-30T05:29:17;43.65;;;24.95;;
31990;SDS011;18508;49.386;8.370;2024-01-30T05:31:47;43.20;;;23.10;;
31990;SDS011;18508;49.386;8.370;2024-01-30T05:34:15;45.65;;;24.10;;
31990;SDS011;18508;49.386;8.370;2024-01-30T05:36:44;42.85;;;23.40;;
31990;SDS011;18508;49.386;8.370;2024-01-30T05:39:12;46.45;;;23.88;;
31990;SDS011;18508;49.386;8.370;2024-01-30T05:41:41;39.72;;;23.30;;
31990;SDS011;18508;49.386;8.370;2024-01-30T05:44:09;42.22;;;23.55;;
31990;SDS011;18508;49.386;8.370;2024-01-30T05:46:37;42.72;;;23.55;;
31990;SDS011;18508;49.386;8.370;2024-01-30T05:49:07;46.03;;;23.73;;
31990;SDS011;18508;49.386;8.370;2024-01-30T05:51:35;47.88;;;25.00;;
31990;SDS011;18508;49.386;8.370;2024-01-30T05:54:04;48.80;;;26.95;;
31990;SDS011;18508;49.386;8.370;2024-01-30T05:56:32;47.80;;;25.70;;
31990;SDS011;18508;49.386;8.370;2024-01-30T05:59:00;48.45;;;27.27;;
31990;SDS011;18508;49.386;8.370;2024-01-30T06:01:29;48.47;;;27.02;;
31990;SDS011;18508;49.386;8.370;2024-01-30T06:03:58;50.40;;;27.98;;
31990;SDS011;18508;49.386;8.370;2024-01-30T06:06:30;52.50;;;27.75;;
31990;SDS011;18508;49.386;8.370;2024-01-30T06:08:58;51.47;;;26.70;;
31990;SDS011;18508;49.386;8.370;2024-01-30T06:11:28;52.58;;;28.88;;
31990;SDS011;18508;49.386;8.370;2024-01-30T06:13:56;50.78;;;27.73;;
31990;SDS011;18508;49.386;8.370;2024-01-30T06:16:25;49.42;;;27.48;;
31990;SDS011;18508;49.386;8.370;2024-01-30T06:18:55;49.63;;;27.45;;
31990;SDS011;18508;49.386;8.370;2024-01-30T06:21:24;51.28;;;27.63;;
31990;SDS011;18508;49.386;8.370;2024-01-30T06:23:54;56.58;;;28.27;;
31990;SDS011;18508;49.386;8.370;2024-01-30T06:26:22;55.45;;;29.20;;
31990;SDS011;18508;49.386;8.370;2024-01-30T06:28:51;56.65;;;29.55;;
31990;SDS011;18508;49.386;8.370;2024-01-30T06:31:20;51.50;;;28.25;;
31990;SDS011;18508;49.386;8.370;2024-01-30T06:33:49;58.42;;;28.85;;
31990;SDS011;18508;49.386;8.370;2024-01-30T06:36:18;53.83;;;28.88;;
31990;SDS011;18508;49.386;8.370;2024-01-30T06:38:47;59.78;;;29.67;;
31990;SDS011;18508;49.386;8.370;2024-01-30T06:41:17;55.55;;;28.60;;
31990;SDS011;18508;49.386;8.370;2024-01-30T06:43:45;56.05;;;29.67;;
31990;SDS011;18508;49.386;8.370;2024-01-30T06:46:13;60.75;;;31.88;;
31990;SDS011;18508;49.386;8.370;2024-01-30T06:48:42;61.97;;;31.33;;
31990;SDS011;18508;49.386;8.370;2024-01-30T06:51:11;64.82;;;34.88;;
31990;SDS011;18508;49.386;8.370;2024-01-30T06:53:48;71.75;;;36.65;;
31990;SDS011;18508;49.386;8.370;2024-01-30T06:56:19;65.93;;;34.17;;
31990;SDS011;18508;49.386;8.370;2024-01-30T06:58:50;62.08;;;32.85;;
31990;SDS011;18508;49.386;8.370;2024-01-30T07:01:19;62.97;;;32.53;;
31990;SDS011;18508;49.386;8.370;2024-01-30T07:03:47;69.90;;;36.03;;
31990;SDS011;18508;49.386;8.370;2024-01-30T07:06:23;70.13;;;33.97;;
31990;SDS011;18508;49.386;8.370;2024-01-30T07:08:52;67.95;;;32.88;;
31990;SDS011;18508;49.386;8.370;2024-01-30T07:11:22;71.75;;;33.22;;
31990;SDS011;18508;49.386;8.370;2024-01-30T07:13:50;66.00;;;32.92;;
31990;SDS011;18508;49.386;8.370;2024-01-30T07:16:19;64.20;;;31.10;;
31990;SDS011;18508;49.386;8.370;2024-01-30T07:18:48;59.45;;;30.33;;
31990;SDS011;18508;49.386;8.370;2024-01-30T07:21:17;60.30;;;29.15;;
31990;SDS011;18508;49.386;8.370;2024-01-30T07:23:48;60.15;;;29.88;;
31990;SDS011;18508;49.386;8.370;2024-01-30T07:26:16;62.97;;;31.05;;
31990;SDS011;18508;49.386;8.370;2024-01-30T07:28:46;54.33;;;28.52;;
31990;SDS011;18508;49.386;8.370;2024-01-30T07:31:14;54.10;;;26.77;;
31990;SDS011;18508;49.386;8.370;2024-01-30T07:33:42;52.63;;;26.88;;
31990;SDS011;18508;49.386;8.370;2024-01-30T07:36:10;47.20;;;24.52;;
31990;SDS011;18508;49.386;8.370;2024-01-30T07:38:39;47.60;;;24.50;;
31990;SDS011;18508;49.386;8.370;2024-01-30T07:41:07;41.42;;;22.58;;
31990;SDS011;18508;49.386;8.370;2024-01-30T07:43:37;47.78;;;23.73;;
31990;SDS011;18508;49.386;8.370;2024-01-30T07:46:07;41.53;;;23.58;;
31990;SDS011;18508;49.386;8.370;2024-01-30T07:48:35;41.17;;;24.20;;
31990;SDS011;18508;49.386;8.370;2024-01-30T07:51:04;42.67;;;23.92;;
31990;SDS011;18508;49.386;8.370;2024-01-30T07:53:32;41.92;;;23.25;;
31990;SDS011;18508;49.386;8.370;2024-01-30T07:56:01;40.33;;;23.17;;
31990;SDS011;18508;49.386;8.370;2024-01-30T07:58:30;42.45;;;24.35;;
31990;SDS011;18508;49.386;8.370;2024-01-30T08:00:58;44.95;;;24.95;;
31990;SDS011;18508;49.386;8.370;2024-01-30T08:03:29;49.47;;;25.48;;
31990;SDS011;18508;49.386;8.370;2024-01-30T08:05:57;45.45;;;25.65;;
31990;SDS011;18508;49.386;8.370;2024-01-30T08:08:26;46.80;;;26.63;;
31990;SDS011;18508;49.386;8.370;2024-01-30T08:10:54;51.58;;;24.48;;
31990;SDS011;18508;49.386;8.370;2024-01-30T08:13:23;47.88;;;25.60;;
31990;SDS011;18508;49.386;8.370;2024-01-30T08:15:51;42.22;;;23.73;;
31990;SDS011;18508;49.386;8.370;2024-01-30T08:18:20;41.50;;;23.23;;
31990;SDS011;18508;49.386;8.370;2024-01-30T08:20:51;41.20;;;23.70;;
31990;SDS011;18508;49.386;8.370;2024-01-30T08:23:19;42.22;;;24.45;;
31990;SDS011;18508;49.386;8.370;2024-01-30T08:25:47;42.40;;;22.58;;
31990;SDS011;18508;49.386;8.370;2024-01-30T08:28:16;42.35;;;24.02;;
31990;SDS011;18508;49.386;8.370;2024-01-30T08:30:46;41.40;;;22.40;;
31990;SDS011;18508;49.386;8.370;2024-01-30T08:33:15;41.30;;;23.25;;
31990;SDS011;18508;49.386;8.370;2024-01-30T08:35:43;41.80;;;24.85;;
31990;SDS011;18508;49.386;8.370;2024-01-30T08:38:14;42.15;;;24.15;;
31990;SDS011;18508;49.386;8.370;2024-01-30T08:40:42;40.50;;;23.05;;
31990;SDS011;18508;49.386;8.370;2024-01-30T08:43:11;48.78;;;26.35;;
31990;SDS011;18508;49.386;8.370;2024-01-30T08:45:42;47.33;;;25.85;;
31990;SDS011;18508;49.386;8.370;2024-01-30T08:48:11;45.42;;;24.83;;
31990;SDS011;18508;49.386;8.370;2024-01-30T08:50:40;49.85;;;26.65;;
31990;SDS011;18508;49.386;8.370;2024-01-30T08:53:09;57.15;;;28.08;;
31990;SDS011;18508;49.386;8.370;2024-01-30T08:55:42;53.33;;;29.40;;
31990;SDS011;18508;49.386;8.370;2024-01-30T08:58:11;53.60;;;28.98;;
31990;SDS011;18508;49.386;8.370;2024-01-30T09:00:40;49.53;;;27.75;;
31990;SDS011;18508;49.386;8.370;2024-01-30T09:03:09;44.55;;;24.88;;
31990;SDS011;18508;49.386;8.370;2024-01-30T09:05:38;37.05;;;21.48;;
31990;SDS011;18508;49.386;8.370;2024-01-30T09:08:07;39.60;;;21.90;;
31990;SDS011;18508;49.386;8.370;2024-01-30T09:10:38;36.55;;;21.95;;
31990;SDS011;18508;49.386;8.370;2024-01-30T09:13:09;40.83;;;22.85;;
31990;SDS011;18508;49.386;8.370;2024-01-30T09:15:37;31.70;;;19.63;;
31990;SDS011;18508;49.386;8.370;2024-01-30T09:18:05;32.20;;;20.33;;
31990;SDS011;18508;49.386;8.370;2024-01-30T09:20:34;34.97;;;20.13;;
31990;SDS011;18508;49.386;8.370;2024-01-30T09:23:03;35.15;;;19.63;;
31990;SDS011;18508;49.386;8.370;2024-01-30T09:25:31;35.40;;;20.13;;
31990;SDS011;18508;49.386;8.370;2024-01-30T09:28:00;31.35;;;19.63;;
31990;SDS011;18508;49.386;8.370;2024-01-30T09:30:30;29.77;;;18.65;;
31990;SDS011;18508;49.386;8.370;2024-01-30T09:32:58;30.45;;;19.38;;
31990;SDS011;18508;49.386;8.370;2024-01-30T09:35:27;32.17;;;19.20;;
31990;SDS011;18508;49.386;8.370;2024-01-30T09:37:56;31.95;;;18.20;;
31990;SDS011;18508;49.386;8.370;2024-01-30T09:40:25;28.30;;;17.58;;
31990;SDS011;18508;49.386;8.370;2024-01-30T09:42:54;29.35;;;17.80;;
31990;SDS011;18508;49.386;8.370;2024-01-30T09:45:23;34.90;;;17.23;;
31990;SDS011;18508;49.386;8.370;2024-01-30T09:47:54;31.05;;;18.38;;
31990;SDS011;18508;49.386;8.370;2024-01-30T09:50:23;26.05;;;17.15;;
31990;SDS011;18508;49.386;8.370;2024-01-30T09:52:52;28.55;;;18.27;;
31990;SDS011;18508;49.386;8.370;2024-01-30T09:55:24;28.30;;;16.40;;
31990;SDS011;18508;49.386;8.370;2024-01-30T09:57:53;28.50;;;17.05;;
31990;SDS011;18508;49.386;8.370;2024-01-30T10:00:21;27.48;;;16.92;;
31990;SDS011;18508;49.386;8.370;2024-01-30T10:05:24;26.65;;;16.55;;
31990;SDS011;18508;49.386;8.370;2024-01-30T10:07:54;30.42;;;16.10;;
31990;SDS011;18508;49.386;8.370;2024-01-30T10:10:23;23.58;;;15.60;;
31990;SDS011;18508;49.386;8.370;2024-01-30T10:12:53;24.42;;;16.15;;
31990;SDS011;18508;49.386;8.370;2024-01-30T10:15:22;23.83;;;14.40;;
31990;SDS011;18508;49.386;8.370;2024-01-30T10:17:51;22.10;;;14.20;;
31990;SDS011;18508;49.386;8.370;2024-01-30T10:20:20;23.35;;;14.90;;
31990;SDS011;18508;49.386;8.370;2024-01-30T10:22:49;27.02;;;15.35;;
31990;SDS011;18508;49.386;8.370;2024-01-30T10:25:18;22.38;;;13.88;;
31990;SDS011;18508;49.386;8.370;2024-01-30T10:27:49;23.50;;;14.27;;
31990;SDS011;18508;49.386;8.370;2024-01-30T10:30:20;24.13;;;14.80;;
31990;SDS011;18508;49.386;8.370;2024-01-30T10:32:49;26.27;;;14.57;;
31990;SDS011;18508;49.386;8.370;2024-01-30T10:35:18;24.70;;;14.77;;
31990;SDS011;18508;49.386;8.370;2024-01-30T10:37:48;25.00;;;15.55;;
31990;SDS011;18508;49.386;8.370;2024-01-30T10:40:16;23.95;;;14.50;;
31990;SDS011;18508;49.386;8.370;2024-01-30T10:42:45;22.55;;;14.25;;
31990;SDS011;18508;49.386;8.370;2024-01-30T10:45:14;23.92;;;13.93;;
31990;SDS011;18508;49.386;8.370;2024-01-30T10:47:43;24.98;;;13.80;;
31990;SDS011;18508;49.386;8.370;2024-01-30T10:52:44;21.23;;;13.38;;
31990;SDS011;18508;49.386;8.370;2024-01-30T10:55:14;24.50;;;13.52;;
31990;SDS011;18508;49.386;8.370;2024-01-30T10:57:44;24.10;;;14.27;;
31990;SDS011;18508;49.386;8.370;2024-01-30T11:00:13;23.75;;;13.68;;
31990;SDS011;18508;49.386;8.370;2024-01-30T11:02:44;21.40;;;13.10;;
31990;SDS011;18508;49.386;8.370;2024-01-30T11:05:13;20.90;;;12.68;;
31990;SDS011;18508;49.386;8.370;2024-01-30T11:07:42;20.05;;;12.50;;
31990;SDS011;18508;49.386;8.370;2024-01-30T11:10:11;20.58;;;12.75;;
31990;SDS011;18508;49.386;8.370;2024-01-30T11:12:43;20.27;;;11.45;;
31990;SDS011;18508;49.386;8.370;2024-01-30T11:17:44;19.60;;;12.15;;
31990;SDS011;18508;49.386;8.370;2024-01-30T11:20:19;19.30;;;12.00;;
31990;SDS011;18508;49.386;8.370;2024-01-30T11:22:50;19.10;;;11.57;;
31990;SDS011;18508;49.386;8.370;2024-01-30T11:25:22;16.00;;;10.55;;
31990;SDS011;18508;49.386;8.370;2024-01-30T11:27:53;16.40;;;10.40;;
31990;SDS011;18508;49.386;8.370;2024-01-30T11:30:23;20.05;;;11.18;;
31990;SDS011;18508;49.386;8.370;2024-01-30T11:33:01;19.63;;;11.18;;
31990;SDS011;18508;49.386;8.370;2024-01-30T11:35:33;17.42;;;11.30;;
31990;SDS011;18508;49.386;8.370;2024-01-30T11:38:02;17.65;;;10.45;;
31990;SDS011;18508;49.386;8.370;2024-01-30T11:40:31;19.17;;;10.77;;
31990;SDS011;18508;49.386;8.370;2024-01-30T11:43:03;17.40;;;11.07;;
31990;SDS011;18508;49.386;8.370;2024-01-30T11:45:32;18.10;;;10.65;;
31990;SDS011;18508;49.386;8.370;2024-01-30T11:48:01;17.30;;;10.35;;
31990;SDS011;18508;49.386;8.370;2024-01-30T11:50:33;17.77;;;9.85;;
31990;SDS011;18508;49.386;8.370;2024-01-30T11:53:01;16.20;;;9.93;;
31990;SDS011;18508;49.386;8.370;2024-01-30T11:55:31;14.00;;;9.20;;
31990;SDS011;18508;49.386;8.370;2024-01-30T11:58:02;15.85;;;9.48;;
31990;SDS011;18508;49.386;8.370;2024-01-30T12:00:38;13.35;;;8.55;;
31990;SDS011;18508;49.386;8.370;2024-01-30T12:03:07;15.57;;;9.23;;
31990;SDS011;18508;49.386;8.370;2024-01-30T12:05:35;14.63;;;8.45;;
31990;SDS011;18508;49.386;8.370;2024-01-30T12:08:14;15.40;;;8.80;;
31990;SDS011;18508;49.386;8.370;2024-01-30T12:10:42;16.35;;;9.13;;
31990;SDS011;18508;49.386;8.370;2024-01-30T12:13:12;16.42;;;9.07;;
31990;SDS011;18508;49.386;8.370;2024-01-30T12:15:41;14.15;;;8.15;;
31990;SDS011;18508;49.386;8.370;2024-01-30T12:18:10;15.55;;;9.32;;
31990;SDS011;18508;49.386;8.370;2024-01-30T12:20:40;14.32;;;8.70;;
31990;SDS011;18508;49.386;8.370;2024-01-30T12:23:08;14.15;;;8.45;;
31990;SDS011;18508;49.386;8.370;2024-01-30T12:25:36;14.73;;;8.60;;
31990;SDS011;18508;49.386;8.370;2024-01-30T12:28:06;12.75;;;7.32;;
31990;SDS011;18508;49.386;8.370;2024-01-30T12:30:36;12.18;;;8.50;;
31990;SDS011;18508;49.386;8.370;2024-01-30T12:33:04;12.32;;;7.90;;
31990;SDS011;18508;49.386;8.370;2024-01-30T12:35:34;12.75;;;8.48;;
31990;SDS011;18508;49.386;8.370;2024-01-30T12:38:11;11.15;;;7.20;;
31990;SDS011;18508;49.386;8.370;2024-01-30T12:40:39;11.63;;;7.97;;
31990;SDS011;18508;49.386;8.370;2024-01-30T12:43:09;12.52;;;7.40;;
31990;SDS011;18508;49.386;8.370;2024-01-30T12:45:40;12.05;;;7.05;;
31990;SDS011;18508;49.386;8.370;2024-01-30T12:48:09;12.05;;;7.28;;
31990;SDS011;18508;49.386;8.370;2024-01-30T12:50:39;13.38;;;7.60;;
31990;SDS011;18508;49.386;8.370;2024-01-30T12:53:10;12.75;;;6.38;;
31990;SDS011;18508;49.386;8.370;2024-01-30T12:55:39;11.13;;;6.72;;
31990;SDS011;18508;49.386;8.370;2024-01-30T12:58:07;15.18;;;6.90;;
31990;SDS011;18508;49.386;8.370;2024-01-30T13:00:35;10.63;;;6.18;;
31990;SDS011;18508;49.386;8.370;2024-01-30T13:03:05;12.45;;;6.60;;
31990;SDS011;18508;49.386;8.370;2024-01-30T13:05:35;13.88;;;6.18;;
31990;SDS011;18508;49.386;8.370;2024-01-30T13:08:04;15.05;;;6.22;;
31990;SDS011;18508;49.386;8.370;2024-01-30T13:10:32;9.80;;;6.00;;
31990;SDS011;18508;49.386;8.370;2024-01-30T13:13:01;8.85;;;5.93;;
31990;SDS011;18508;49.386;8.370;2024-01-30T13:15:29;10.50;;;5.60;;
31990;SDS011;18508;49.386;8.370;2024-01-30T13:17:57;9.40;;;5.60;;
31990;SDS011;18508;49.386;8.370;2024-01-30T13:20:27;9.52;;;5.43;;
31990;SDS011;18508;49.386;8.370;2024-01-30T13:22:56;8.68;;;5.57;;
31990;SDS011;18508;49.386;8.370;2024-01-30T13:25:24;9.98;;;5.65;;
31990;SDS011;18508;49.386;8.370;2024-01-30T13:27:52;8.20;;;5.40;;
31990;SDS011;18508;49.386;8.370;2024-01-30T13:30:21;10.93;;;5.88;;
31990;SDS011;18508;49.386;8.370;2024-01-30T13:32:52;10.40;;;5.97;;
31990;SDS011;18508;49.386;8.370;2024-01-30T13:35:20;11.02;;;5.85;;
31990;SDS011;18508;49.386;8.370;2024-01-30T13:37:50;9.63;;;5.78;;
31990;SDS011;18508;49.386;8.370;2024-01-30T13:40:19;15.70;;;5.70;;
31990;SDS011;18508;49.386;8.370;2024-01-30T13:42:48;9.15;;;5.00;;
31990;SDS011;18508;49.386;8.370;2024-01-30T13:45:16;9.30;;;5.63;;
31990;SDS011;18508;49.386;8.370;2024-01-30T13:47:47;12.25;;;5.97;;
31990;SDS011;18508;49.386;8.370;2024-01-30T13:50:16;12.10;;;6.15;;
31990;SDS011;18508;49.386;8.370;2024-01-30T13:52:44;11.13;;;7.00;;
31990;SDS011;18508;49.386;8.370;2024-01-30T13:55:14;10.77;;;6.35;;
31990;SDS011;18508;49.386;8.370;2024-01-30T13:57:42;9.25;;;5.82;;
31990;SDS011;18508;49.386;8.370;2024-01-30T14:00:14;10.43;;;5.63;;
31990;SDS011;18508;49.386;8.370;2024-01-30T14:02:45;10.63;;;6.13;;
31990;SDS011;18508;49.386;8.370;2024-01-30T14:05:15;12.10;;;6.03;;
31990;SDS011;18508;49.386;8.370;2024-01-30T14:07:43;9.98;;;6.20;;
31990;SDS011;18508;49.386;8.370;2024-01-30T14:10:11;10.85;;;6.35;;
31990;SDS011;18508;49.386;8.370;2024-01-30T14:12:41;9.13;;;6.15;;
31990;SDS011;18508;49.386;8.370;2024-01-30T14:15:11;11.43;;;6.45;;
31990;SDS011;18508;49.386;8.370;2024-01-30T14:17:53;11.00;;;6.35;;
31990;SDS011;18508;49.386;8.370;2024-01-30T14:20:22;12.48;;;6.65;;
31990;SDS011;18508;49.386;8.370;2024-01-30T14:22:50;11.13;;;6.53;;
31990;SDS011;18508;49.386;8.370;2024-01-30T14:25:21;12.57;;;7.43;;
31990;SDS011;18508;49.386;8.370;2024-01-30T14:27:49;16.83;;;6.70;;
31990;SDS011;18508;49.386;8.370;2024-01-30T14:30:18;10.30;;;6.45;;
31990;SDS011;18508;49.386;8.370;2024-01-30T14:32:46;12.20;;;5.53;;
31990;SDS011;18508;49.386;8.370;2024-01-30T14:35:15;10.68;;;5.72;;
31990;SDS011;18508;49.386;8.370;2024-01-30T14:37:43;8.95;;;6.25;;
31990;SDS011;18508;49.386;8.370;2024-01-30T14:40:11;11.73;;;5.82;;
31990;SDS011;18508;49.386;8.370;2024-01-30T14:42:41;12.77;;;7.18;;